Terminal Aerodrome Forecast
Issued by NWS

Home | Current Version | Previous Version | Text Only | Print | Product List | Glossary On
Versions: 1 2 3 4 5 6 7 8 9 10 11 12 13 14 15 16 17 18 19 20
000
FTAK31 PAFA 271138
TAFAMC
TAF
PAMC 271138Z 2712/2812 21004KT 6SM -SN BR SCT015 BKN035 OVC050
     FM271600 24008G16KT 1 1/2SM -SN BR BKN015 OVC025
     FM280600 28009KT 4SM -SN BR BKN025 OVC035=

USA.gov is the U.S. government's official web portal to all federal, state and local government web resources and services.